Time;durP1;ratioP1;P1;durP2;ratioP2;P2;SDS_P1;SDS_P2;PMS_P1;PMS_P2;Temp;Humidity;BMP_temperature;BMP_pressure;BME280_temperature;BME280_humidity;BME280_pressure;Samples;Min_cycle;Max_cycle;Signal;HPM_P1;HPM_P2
2022/11/01 00:02:46;;;;;;;23.80;9.68;;;;;;;10.96;98.39;100511.31;6271542;22;20023;-83
2022/11/01 00:05:57;;;;;;;21.15;10.35;;;;;;;11.18;97.49;100507.44;6271035;22;20023;-83
2022/11/01 00:09:02;;;;;;;16.77;9.70;;;;;;;11.12;97.81;100507.75;6271097;22;20042;-83
2022/11/01 00:12:08;;;;;;;28.35;10.23;;;;;;;11.06;97.89;100507.25;6271968;22;20474;-82
2022/11/01 00:15:12;;;;;;;20.58;9.80;;;;;;;11.14;97.63;100497.22;6271948;22;20023;-83
2022/11/01 00:18:20;;;;;;;19.33;10.02;;;;;;;11.05;97.86;100501.19;6271565;22;20117;-83
2022/11/01 00:21:28;;;;;;;19.40;9.68;;;;;;;11.17;97.84;100499.69;6271868;22;20076;-83
2022/11/01 00:24:33;;;;;;;21.73;11.20;;;;;;;11.15;97.55;100499.75;6271925;22;20444;-83
2022/11/01 00:27:38;;;;;;;21.75;10.23;;;;;;;11.08;98.20;100502.78;6270933;22;20027;-83
2022/11/01 00:30:41;;;;;;;30.58;10.18;;;;;;;11.23;97.68;100493.22;6252137;22;20073;-83
2022/11/01 00:33:46;;;;;;;27.02;10.30;;;;;;;11.08;97.90;100487.94;6270038;22;20030;-83
2022/11/01 00:36:49;;;;;;;28.13;11.65;;;;;;;11.15;97.86;100496.28;6270821;22;20023;-83
2022/11/01 00:39:54;;;;;;;26.27;10.35;;;;;;;11.19;97.43;100482.09;6271714;22;20027;-83
2022/11/01 00:42:58;;;;;;;31.23;11.23;;;;;;;11.10;98.23;100473.00;6271900;22;20918;-83
2022/11/01 00:46:06;;;;;;;37.03;12.15;;;;;;;11.14;98.48;100468.44;6271656;22;20076;-83
2022/11/01 00:49:10;;;;;;;27.67;11.77;;;;;;;11.11;98.92;100464.22;6270628;22;20088;-83
2022/11/01 00:52:15;;;;;;;43.30;13.63;;;;;;;11.12;98.41;100446.72;6270705;22;20081;-83
2022/11/01 00:55:18;;;;;;;35.55;11.35;;;;;;;11.11;98.77;100448.50;6270521;22;20075;-83
2022/11/01 00:58:23;;;;;;;26.00;10.77;;;;;;;11.12;98.45;100444.13;6270559;22;20026;-83
2022/11/01 01:01:28;;;;;;;54.20;12.98;;;;;;;10.98;99.43;100451.91;6270319;22;20026;-82
2022/11/01 01:04:31;;;;;;;;;;;;;;;10.91;99.90;100438.28;6271870;22;20073;-83
2022/11/01 01:07:36;;;;;;;33.65;11.63;;;;;;;11.03;99.74;100444.63;6271261;22;20238;-83
2022/11/01 01:10:40;;;;;;;22.08;10.85;;;;;;;10.98;99.66;100446.69;6252082;22;20555;-83
2022/11/01 01:13:44;;;;;;;18.63;10.65;;;;;;;10.98;100.00;100442.28;6251750;22;20045;-83
2022/11/01 01:16:50;;;;;;;18.25;10.63;;;;;;;11.23;99.13;100430.41;6269426;22;20346;-83
2022/11/01 01:19:55;;;;;;;24.35;12.13;;;;;;;11.16;99.47;100428.16;6270382;22;20084;-83
2022/11/01 01:22:59;;;;;;;26.02;11.40;;;;;;;11.12;99.55;100423.19;6270281;22;20077;-83
2022/11/01 01:26:06;;;;;;;;;;;;;;;11.27;98.60;100432.78;6271209;22;20023;-83
2022/11/01 01:29:17;;;;;;;21.55;9.63;;;;;;;11.25;98.73;100433.81;6271210;22;19914;-83
2022/11/01 01:32:23;;;;;;;;;;;;;;;11.28;98.32;100431.84;6270142;22;20022;-83
2022/11/01 01:35:27;;;;;;;24.05;13.60;;;;;;;11.09;98.71;100428.59;6252248;22;19985;-83
2022/11/01 01:38:31;;;;;;;19.17;11.70;;;;;;;11.12;98.85;100413.56;6270964;22;20022;-83
2022/11/01 01:41:57;;;;;;;22.13;11.40;;;;;;;11.12;99.34;100415.34;6271051;22;20458;-83
2022/11/01 01:45:06;;;;;;;25.65;11.63;;;;;;;11.09;99.02;100420.75;6250165;22;20123;-83
2022/11/01 01:48:19;;;;;;;17.40;11.35;;;;;;;11.15;99.56;100423.00;6270447;22;20436;-82
2022/11/01 01:51:27;;;;;;;22.98;11.20;;;;;;;11.14;99.63;100421.34;6270231;22;20027;-83
2022/11/01 01:54:31;;;;;;;25.70;11.95;;;;;;;11.11;99.64;100419.72;6270325;22;20026;-83
2022/11/01 01:57:36;;;;;;;25.25;12.15;;;;;;;11.11;99.95;100426.75;6270426;22;20080;-83
2022/11/01 02:00:46;;;;;;;19.23;10.13;;;;;;;11.10;99.56;100419.81;6269618;22;20077;-83
2022/11/01 02:03:58;;;;;;;21.88;11.73;;;;;;;10.98;99.51;100413.50;6270462;22;20077;-83
2022/11/01 02:07:01;;;;;;;27.85;10.57;;;;;;;11.10;98.83;100409.34;6270241;22;20077;-83
2022/11/01 02:10:07;;;;;;;15.45;10.50;;;;;;;11.07;98.81;100414.75;6270693;22;20350;-83
2022/11/01 02:13:13;;;;;;;21.17;10.45;;;;;;;11.15;97.98;100417.78;6271222;22;20026;-82
2022/11/01 02:17:00;;;;;;;18.55;9.90;;;;;;;10.87;98.92;100408.84;6272717;22;20536;-82
2022/11/01 02:20:10;;;;;;;14.52;9.93;;;;;;;10.94;98.38;100410.22;6257653;22;20038;-83
2022/11/01 02:23:49;;;;;;;19.88;10.63;;;;;;;10.99;97.90;100399.47;6272299;22;20054;-83
2022/11/01 02:27:13;;;;;;;17.17;9.45;;;;;;;10.87;98.23;100408.84;6253968;22;20043;-83
2022/11/01 02:30:20;;;;;;;15.25;8.25;;;;;;;10.79;98.77;100413.66;6269979;22;20065;-83
2022/11/01 02:33:33;;;;;;;17.88;8.90;;;;;;;10.89;98.21;100411.38;6270590;22;20022;-82
2022/11/01 02:36:45;;;;;;;16.15;8.77;;;;;;;10.86;97.82;100420.25;6270615;22;20026;-83
2022/11/01 02:39:55;;;;;;;17.13;9.97;;;;;;;10.99;97.30;100422.19;6271365;22;20065;-83
2022/11/01 02:43:08;;;;;;;17.45;9.15;;;;;;;10.86;98.05;100432.47;6271106;22;20713;-83
2022/11/01 02:49:48;;;;;;;15.38;9.30;;;;;;;10.79;98.28;100421.53;6271872;22;20050;-83
2022/11/01 02:52:53;;;;;;;14.05;9.00;;;;;;;10.80;98.61;100415.34;6272184;22;20343;-83
2022/11/01 02:55:57;;;;;;;15.70;9.10;;;;;;;10.94;97.40;100419.81;6271966;22;20023;-83
2022/11/01 02:59:00;;;;;;;14.32;8.43;;;;;;;10.93;96.91;100421.59;6272156;22;20026;-83
2022/11/01 03:02:09;;;;;;;23.70;9.15;;;;;;;10.83;97.82;100425.66;6273936;22;20022;-83
2022/11/01 03:05:34;;;;;;;14.75;8.35;;;;;;;10.94;97.27;100431.16;6300801;22;20026;-83
2022/11/01 03:08:45;;;;;;;11.95;8.13;;;;;;;10.92;97.36;100427.75;6300299;22;20030;-83
2022/11/01 03:11:58;;;;;;;17.75;8.65;;;;;;;10.91;97.45;100422.59;6283277;22;20073;-83
2022/11/01 03:15:19;;;;;;;17.42;7.82;;;;;;;10.90;97.99;100424.38;6279189;22;20023;-83
2022/11/01 03:18:32;;;;;;;18.75;9.38;;;;;;;10.87;97.77;100424.53;6276980;22;20026;-83
2022/11/01 03:21:41;;;;;;;18.77;11.63;;;;;;;10.90;97.65;100429.59;6271900;22;20026;-83
2022/11/01 03:24:45;;;;;;;18.17;9.80;;;;;;;10.93;97.73;100433.81;6253126;22;20081;-83
2022/11/01 03:27:49;;;;;;;21.38;10.30;;;;;;;10.93;97.36;100437.28;6270831;22;20019;-83
2022/11/01 03:31:05;;;;;;;23.20;10.85;;;;;;;10.88;97.93;100436.72;6253091;22;20073;-82
2022/11/01 03:34:15;;;;;;;20.55;11.25;;;;;;;10.97;97.47;100437.13;6271637;22;20025;-83
2022/11/01 03:37:19;;;;;;;16.13;9.52;;;;;;;10.86;97.96;100441.16;6271338;22;20026;-83
2022/11/01 03:40:25;;;;;;;16.77;10.73;;;;;;;10.82;98.12;100442.28;6270861;22;20152;-83
2022/11/01 03:43:31;;;;;;;19.90;8.40;;;;;;;10.86;97.73;100438.56;6271831;22;20073;-83
2022/11/01 03:46:35;;;;;;;16.00;8.65;;;;;;;10.82;97.55;100442.28;6271555;22;20027;-83
2022/11/01 03:49:39;;;;;;;19.80;9.90;;;;;;;10.96;96.76;100449.34;6272466;22;20026;-83
2022/11/01 03:52:42;;;;;;;19.02;8.10;;;;;;;10.99;95.89;100449.19;6272210;22;20106;-83
2022/11/01 03:55:47;;;;;;;17.77;7.68;;;;;;;10.87;96.82;100453.31;6271006;22;20105;-83
2022/11/01 03:58:52;;;;;;;22.80;9.35;;;;;;;10.78;97.68;100443.34;6252568;22;20076;-83
2022/11/01 04:01:55;;;;;;;22.05;9.90;;;;;;;10.83;97.57;100443.13;6271254;22;20085;-83
2022/11/01 04:05:03;;;;;;;17.42;8.95;;;;;;;10.87;97.05;100442.84;6271057;22;20069;-83
2022/11/01 04:08:09;;;;;;;18.38;8.45;;;;;;;10.88;97.35;100441.06;6270745;22;20031;-83
2022/11/01 04:11:13;;;;;;;17.15;8.95;;;;;;;11.01;96.81;100452.56;6271640;22;20022;-83
2022/11/01 04:21:19;;;;;;;13.48;6.80;;;;;;;11.07;96.33;100464.44;6271829;22;20466;-83
2022/11/01 04:24:23;;;;;;;12.43;6.97;;;;;;;11.07;96.21;100480.16;6251649;22;20042;-83
2022/11/01 04:27:26;;;;;;;14.15;7.32;;;;;;;11.07;96.84;100474.91;6272083;22;20023;-82
2022/11/01 04:30:30;;;;;;;14.80;6.78;;;;;;;10.93;97.15;100480.91;6272209;22;20027;-83
2022/11/01 04:33:33;;;;;;;;;;;;;;;11.01;97.13;100488.34;6272187;22;20516;-82
2022/11/01 04:36:37;;;;;;;16.98;6.78;;;;;;;11.04;96.63;100478.56;6270518;22;19994;-83
2022/11/01 04:39:40;;;;;;;17.27;6.82;;;;;;;11.03;97.33;100476.88;6270813;22;20050;-83
2022/11/01 04:42:44;;;;;;;15.15;7.13;;;;;;;11.06;97.13;100486.31;6270785;22;20022;-83
2022/11/01 04:45:57;;;;;;;12.20;7.63;;;;;;;11.05;97.32;100489.88;6271464;22;20072;-83
2022/11/01 04:49:01;;;;;;;11.82;7.70;;;;;;;11.17;96.71;100504.91;6270501;22;20065;-82
2022/11/01 04:52:05;;;;;;;12.60;8.30;;;;;;;11.16;96.71;100500.59;6267802;22;20062;-82
2022/11/01 04:55:08;;;;;;;16.10;7.05;;;;;;;11.10;97.17;100503.53;6270553;22;20508;-83
2022/11/01 04:58:13;;;;;;;11.73;6.00;;;;;;;11.10;97.35;100507.03;6270979;22;20018;-83
2022/11/01 05:01:19;;;;;;;9.95;5.82;;;;;;;11.03;97.60;100500.41;6270499;22;20095;-83
2022/11/01 05:04:22;;;;;;;12.68;6.32;;;;;;;11.21;97.15;100501.19;6270381;22;20089;-83
2022/11/01 05:07:27;;;;;;;11.75;6.15;;;;;;;11.13;97.18;100504.22;6251470;22;20389;-83
2022/11/01 05:10:32;;;;;;;10.45;6.57;;;;;;;11.11;97.38;100513.94;6270225;22;20160;-83
2022/11/01 05:13:35;;;;;;;12.63;6.60;;;;;;;11.04;97.54;100509.09;6271063;22;20058;-83
2022/11/01 05:16:39;;;;;;;;;;;;;;;11.07;97.57;100514.16;6271798;22;20022;-83
2022/11/01 05:19:42;;;;;;;;;;;;;;;11.03;97.87;100523.13;6271225;22;19984;-83
2022/11/01 05:22:46;;;;;;;11.48;6.10;;;;;;;11.07;98.12;100524.63;6270718;22;19953;-83
2022/11/01 05:25:49;;;;;;;12.65;6.40;;;;;;;11.15;97.66;100517.22;6270267;22;20129;-83
2022/11/01 05:28:53;;;;;;;13.05;6.80;;;;;;;11.00;97.97;100515.44;6270197;22;20042;-83
2022/11/01 05:31:58;;;;;;;14.88;6.43;;;;;;;11.09;97.80;100528.03;6268824;22;20398;-83
2022/11/01 05:35:01;;;;;;;10.57;7.53;;;;;;;10.85;98.98;100530.19;6270419;22;20027;-83
2022/11/01 05:38:05;;;;;;;12.90;7.30;;;;;;;10.89;99.49;100539.56;6271299;22;20438;-83
2022/11/01 05:41:09;;;;;;;11.75;6.50;;;;;;;11.00;99.05;100525.91;6270455;22;20038;-83
2022/11/01 05:44:12;;;;;;;;;;;;;;;10.97;98.62;100526.06;6270716;22;20051;-83
2022/11/01 05:47:15;;;;;;;14.57;7.90;;;;;;;11.01;98.77;100524.97;6270189;22;19914;-83
2022/11/01 05:50:19;;;;;;;8.98;5.50;;;;;;;11.10;98.20;100529.69;6270299;22;20054;-83
2022/11/01 05:53:23;;;;;;;13.15;5.47;;;;;;;10.99;98.77;100527.69;6271112;22;20153;-83
2022/11/01 05:56:27;;;;;;;;;;;;;;;11.08;97.88;100542.88;6271417;22;20574;-83
2022/11/01 05:59:31;;;;;;;13.00;6.40;;;;;;;11.08;97.80;100539.44;6269921;22;19965;-83
2022/11/01 06:02:35;;;;;;;7.90;6.63;;;;;;;11.00;98.37;100536.38;6270358;22;20022;-83
2022/11/01 06:05:39;;;;;;;11.20;6.75;;;;;;;10.86;98.88;100537.97;6270491;22;20101;-83
2022/11/01 06:08:42;;;;;;;11.75;5.97;;;;;;;10.90;98.61;100544.72;6270039;22;20058;-83
2022/11/01 06:11:47;;;;;;;13.10;5.55;;;;;;;10.93;98.42;100544.53;6270634;22;20489;-83
2022/11/01 06:14:50;;;;;;;9.45;5.90;;;;;;;10.99;98.12;100550.38;6270507;22;20142;-83
2022/11/01 06:17:57;;;;;;;8.55;5.25;;;;;;;10.91;98.75;100558.63;6270822;22;20113;-83
2022/11/01 06:21:01;;;;;;;11.85;5.60;;;;;;;11.04;97.56;100566.66;6270583;22;20454;-83
2022/11/01 06:24:05;;;;;;;10.63;6.63;;;;;;;10.97;97.75;100565.31;6251349;22;20387;-83
2022/11/01 06:27:11;;;;;;;10.13;6.07;;;;;;;10.78;98.51;100561.03;6270128;22;20019;-83
2022/11/01 06:30:14;;;;;;;;;;;;;;;10.86;98.72;100574.56;6270285;22;20089;-83
2022/11/01 06:33:18;;;;;;;10.05;6.90;;;;;;;10.83;98.79;100579.13;6270470;22;20380;-83
2022/11/01 06:36:22;;;;;;;14.48;7.78;;;;;;;10.85;98.65;100577.28;6270848;22;20023;-83
2022/11/01 06:39:26;;;;;;;13.82;5.47;;;;;;;10.86;98.43;100574.56;6270967;22;20498;-83
2022/11/01 06:42:30;;;;;;;12.25;5.53;;;;;;;11.01;97.65;100582.53;6269594;22;20514;-83
2022/11/01 06:45:36;;;;;;;13.63;5.93;;;;;;;10.81;98.49;100587.03;6269871;22;20090;-83
2022/11/01 06:48:47;;;;;;;10.23;6.95;;;;;;;10.77;99.25;100595.13;6270164;22;20366;-83
2022/11/01 06:51:54;;;;;;;13.52;6.43;;;;;;;10.83;99.25;100595.66;6269918;22;20022;-83
2022/11/01 06:54:59;;;;;;;8.05;5.68;;;;;;;10.78;99.18;100602.88;6269532;22;20278;-83
2022/11/01 06:58:05;;;;;;;11.52;6.22;;;;;;;10.83;99.00;100598.28;6269086;22;20027;-83
2022/11/01 07:01:11;;;;;;;11.82;5.78;;;;;;;10.96;98.22;100615.94;6271186;22;20026;-82
2022/11/01 07:04:15;;;;;;;12.65;7.20;;;;;;;10.96;97.82;100626.41;6271955;22;20413;-82
2022/11/01 07:07:19;;;;;;;11.70;6.65;;;;;;;11.03;97.83;100633.00;6272579;22;20023;-82
2022/11/01 07:10:23;;;;;;;10.05;6.80;;;;;;;11.00;98.16;100638.41;6272511;22;20027;-82
2022/11/01 07:13:32;;;;;;;8.40;5.30;;;;;;;10.98;98.71;100635.03;6251937;22;20054;-82
2022/11/01 07:16:38;;;;;;;12.07;7.57;;;;;;;10.94;98.78;100643.06;6270625;22;20027;-82
2022/11/01 07:19:43;;;;;;;18.23;12.80;;;;;;;10.96;99.13;100647.34;6269612;22;20065;-83
2022/11/01 07:22:55;;;;;;;19.30;11.77;;;;;;;11.09;98.45;100656.25;6271195;22;20409;-83
2022/11/01 07:25:58;;;;;;;11.70;6.43;;;;;;;10.97;99.96;100655.09;6270908;22;20033;-84
2022/11/01 07:29:02;;;;;;;12.02;5.88;;;;;;;11.02;100.00;100660.13;6271425;22;20046;-83
2022/11/01 07:32:07;;;;;;;7.80;5.35;;;;;;;11.14;99.58;100665.56;6271601;22;20046;-83
2022/11/01 07:35:11;;;;;;;14.02;5.28;;;;;;;11.19;99.96;100667.91;6271683;22;20458;-83
2022/11/01 07:38:17;;;;;;;13.23;6.75;;;;;;;11.11;100.00;100675.34;6272130;22;20478;-83
2022/11/01 07:41:21;;;;;;;9.63;6.43;;;;;;;11.22;100.00;100674.78;6271817;22;20025;-83
2022/11/01 07:44:27;;;;;;;10.00;6.18;;;;;;;11.24;100.00;100675.53;6271844;22;20027;-83
2022/11/01 07:47:31;;;;;;;10.32;6.85;;;;;;;11.19;100.00;100678.38;6271523;22;20394;-84
2022/11/01 07:50:37;;;;;;;14.48;5.25;;;;;;;11.18;100.00;100689.78;6270064;22;20682;-83
2022/11/01 07:53:41;;;;;;;11.55;5.20;;;;;;;11.25;100.00;100691.16;6270339;22;20530;-84
2022/11/01 07:56:48;;;;;;;8.88;6.00;;;;;;;11.34;100.00;100684.59;6250044;22;20142;-83
2022/11/01 07:59:52;;;;;;;10.50;6.20;;;;;;;11.39;100.00;100688.66;6270499;22;20101;-84
2022/11/01 08:03:09;;;;;;;11.40;8.70;;;;;;;11.48;100.00;100697.78;6271797;22;20520;-83
2022/11/01 08:06:15;;;;;;;12.68;7.63;;;;;;;11.53;100.00;100694.94;6270567;22;20469;-83
2022/11/01 08:09:22;;;;;;;9.88;6.75;;;;;;;11.66;100.00;100708.22;6269424;22;20514;-84
2022/11/01 08:12:27;;;;;;;15.95;7.88;;;;;;;11.67;100.00;100702.03;6270956;22;20026;-83
2022/11/01 08:16:01;;;;;;;12.02;8.40;;;;;;;11.62;100.00;100721.47;6274925;22;20049;-83
2022/11/01 08:19:06;;;;;;;10.70;8.43;;;;;;;11.72;100.00;100728.84;6271988;22;20062;-83
2022/11/01 08:22:11;;;;;;;9.85;7.82;;;;;;;11.75;100.00;100731.31;6270670;22;20030;-83
2022/11/01 08:25:15;;;;;;;21.50;13.73;;;;;;;11.65;100.00;100733.56;6270769;22;20090;-84
2022/11/01 08:28:19;;;;;;;21.83;10.75;;;;;;;11.73;100.00;100728.75;6270748;22;20467;-84
2022/11/01 08:31:23;;;;;;;20.45;10.82;;;;;;;11.74;100.00;100724.34;6270038;22;20458;-83
2022/11/01 08:34:32;;;;;;;17.92;10.55;;;;;;;11.94;100.00;100728.56;6252835;22;20026;-83
2022/11/01 08:37:50;;;;;;;13.30;7.95;;;;;;;11.98;100.00;100722.22;6270799;22;20063;-83
2022/11/01 08:40:54;;;;;;;18.65;5.88;;;;;;;12.04;100.00;100740.22;6270544;22;20023;-83
2022/11/01 08:43:59;;;;;;;17.05;7.93;;;;;;;12.17;100.00;100748.28;6271293;22;20038;-83
2022/11/01 08:47:05;;;;;;;12.85;6.55;;;;;;;12.33;100.00;100746.47;6271353;22;20097;-83
2022/11/01 08:50:12;;;;;;;18.90;6.03;;;;;;;12.44;100.00;100751.94;6271342;22;20161;-83
2022/11/01 08:53:15;;;;;;;9.27;5.40;;;;;;;12.42;100.00;100768.72;6271081;22;20121;-83
2022/11/01 08:56:20;;;;;;;8.52;3.90;;;;;;;12.47;100.00;100761.44;6270025;22;20077;-82
2022/11/01 08:59:25;;;;;;;10.18;4.20;;;;;;;12.63;100.00;100754.38;6270240;22;20110;-83
2022/11/01 09:02:30;;;;;;;11.73;3.58;;;;;;;12.80;99.39;100767.38;6270120;22;20050;-83
2022/11/01 09:05:35;;;;;;;6.25;3.30;;;;;;;12.84;97.43;100772.47;6269579;22;20109;-83
2022/11/01 09:08:38;;;;;;;7.63;2.65;;;;;;;13.25;89.47;100770.91;6270239;22;20058;-83
2022/11/01 09:11:42;;;;;;;5.60;2.58;;;;;;;13.26;90.31;100783.09;6269405;22;20027;-83
2022/11/01 09:14:47;;;;;;;6.93;1.65;;;;;;;13.71;70.69;100790.94;6271461;22;20118;-83
2022/11/01 09:17:51;;;;;;;2.38;0.90;;;;;;;13.96;65.67;100799.00;6271434;22;20099;-83
2022/11/01 09:20:56;;;;;;;4.80;1.10;;;;;;;14.42;57.47;100800.50;6270097;22;20054;-83
2022/11/01 09:24:04;;;;;;;5.35;0.55;;;;;;;14.45;56.80;100799.47;6270145;22;20363;-83
2022/11/01 09:27:09;;;;;;;2.85;0.77;;;;;;;14.47;56.00;100797.59;6271331;22;20019;-83
2022/11/01 09:30:12;;;;;;;4.82;0.80;;;;;;;14.48;56.52;100812.44;6251501;22;20026;-83
2022/11/01 09:33:22;;;;;;;2.13;0.80;;;;;;;14.52;56.10;100811.34;6270579;22;20355;-83
2022/11/01 09:36:28;;;;;;;3.42;0.70;;;;;;;14.57;56.64;100809.25;6273866;22;20022;-83
2022/11/01 09:39:35;;;;;;;3.13;0.70;;;;;;;14.59;57.05;100818.75;6275567;22;20100;-83
2022/11/01 09:42:42;;;;;;;4.22;1.15;;;;;;;14.56;57.83;100803.16;6280233;22;20038;-83
2022/11/01 09:45:49;;;;;;;4.35;0.70;;;;;;;14.72;56.50;100813.53;6273835;22;20077;-83
2022/11/01 09:48:55;;;;;;;5.47;0.50;;;;;;;14.59;58.42;100812.63;6272836;22;20026;-83
2022/11/01 09:52:00;;;;;;;2.80;0.70;;;;;;;14.72;55.88;100810.88;6253781;22;20034;-83
2022/11/01 09:55:15;;;;;;;3.72;0.90;;;;;;;14.65;56.57;100820.97;6271533;22;20026;-83
2022/11/01 09:58:46;;;;;;;6.65;1.10;;;;;;;14.99;54.53;100834.56;6271511;22;20022;-84
2022/11/01 10:02:01;;;;;;;6.00;0.93;;;;;;;15.24;54.15;100830.31;6270331;22;20042;-83
2022/11/01 10:05:43;;;;;;;5.15;0.65;;;;;;;15.04;52.18;100847.44;6271585;22;20026;-83
2022/11/01 10:09:23;;;;;;;5.13;0.77;;;;;;;14.87;53.93;100859.06;6270841;22;20023;-83
2022/11/01 10:13:05;;;;;;;2.45;0.65;;;;;;;14.99;54.03;100863.53;6270523;22;20026;-82
2022/11/01 10:16:37;;;;;;;3.13;0.57;;;;;;;14.92;54.39;100862.25;6271017;22;20073;-83
2022/11/01 10:19:47;;;;;;;3.90;1.15;;;;;;;14.81;55.72;100854.22;6269170;22;20508;-83
2022/11/01 10:22:51;;;;;;;6.25;0.40;;;;;;;14.84;56.56;100854.00;6268473;22;20038;-82
2022/11/01 10:25:55;;;;;;;5.85;1.02;;;;;;;14.83;57.72;100852.31;6268931;22;20026;-83
2022/11/01 10:29:23;;;;;;;21.05;1.10;;;;;;;14.90;55.77;100858.88;6269881;22;20082;-83
2022/11/01 10:32:31;;;;;;;2.35;0.93;;;;;;;14.92;55.80;100850.88;6270081;22;20070;-83
2022/11/01 10:35:42;;;;;;;5.10;0.93;;;;;;;14.79;56.62;100863.97;6270883;22;20027;-83
2022/11/01 10:39:08;;;;;;;3.35;0.90;;;;;;;14.82;55.92;100872.53;6272152;22;20240;-83
2022/11/01 10:42:17;;;;;;;4.68;0.88;;;;;;;14.89;55.19;100867.69;6271934;22;20108;-83
2022/11/01 10:45:23;;;;;;;3.67;0.73;;;;;;;14.86;54.93;100878.44;6271372;22;20070;-83
2022/11/01 10:48:40;;;;;;;5.15;0.90;;;;;;;14.93;54.43;100874.44;6270997;22;20413;-83
2022/11/01 10:51:46;;;;;;;5.43;0.68;;;;;;;14.94;52.38;100865.63;6269183;22;20022;-83
2022/11/01 10:54:52;;;;;;;2.75;0.70;;;;;;;14.96;51.71;100866.34;6269927;22;20030;-83
2022/11/01 10:58:14;;;;;;;3.72;1.05;;;;;;;14.95;51.03;100862.03;6269842;22;20114;-82
2022/11/01 11:01:24;;;;;;;3.47;0.75;;;;;;;15.06;49.57;100859.56;6269683;22;20474;-82
2022/11/01 11:04:28;;;;;;;3.88;0.90;;;;;;;15.13;48.89;100860.00;6271835;22;20022;-83
2022/11/01 11:07:31;;;;;;;8.18;5.55;;;;;;;15.17;48.94;100861.47;6272656;22;20077;-83
2022/11/01 11:10:35;;;;;;;13.23;6.80;;;;;;;15.13;49.97;100853.91;6273191;22;20030;-83
2022/11/01 11:13:46;;;;;;;6.07;1.98;;;;;;;15.11;48.93;100852.19;6271882;22;20026;-83
2022/11/01 11:16:58;;;;;;;3.70;1.00;;;;;;;15.30;48.35;100854.44;6273146;22;20042;-82
2022/11/01 11:20:06;;;;;;;5.00;0.60;;;;;;;15.19;48.96;100849.06;6273035;22;20355;-83
2022/11/01 11:23:11;;;;;;;2.47;0.55;;;;;;;15.21;49.20;100852.41;6273008;22;20077;-82
2022/11/01 11:26:18;;;;;;;3.38;0.63;;;;;;;15.24;48.19;100861.91;6272442;22;20026;-83
2022/11/01 11:29:47;;;;;;;4.43;0.90;;;;;;;15.24;48.03;100869.81;6271592;22;20022;-83
2022/11/01 11:32:52;;;;;;;4.18;0.90;;;;;;;15.27;47.33;100872.25;6272549;22;20023;-83
2022/11/01 11:35:58;;;;;;;2.30;0.70;;;;;;;15.35;45.75;100877.88;6272602;22;20563;-83
2022/11/01 11:39:03;;;;;;;3.03;0.73;;;;;;;15.39;45.48;100879.34;6273981;22;20398;-84
2022/11/01 11:42:14;;;;;;;2.03;0.70;;;;;;;15.52;47.50;100874.09;6271604;22;20022;-82
2022/11/01 11:45:32;;;;;;;4.00;1.00;;;;;;;15.84;48.06;100874.56;6273178;22;20465;-86
2022/11/01 11:48:48;;;;;;;2.67;0.55;;;;;;;15.87;46.29;100874.34;6271436;22;20038;-85
2022/11/01 11:51:52;;;;;;;;;;;;;;;15.78;43.83;100864.44;6272394;22;20069;-83
2022/11/01 11:54:55;;;;;;;9.05;4.78;;;;;;;15.66;43.56;100857.34;6271723;22;19918;-83
2022/11/01 11:58:29;;;;;;;4.93;2.28;;;;;;;15.56;43.72;100867.66;6271608;22;20457;-83
2022/11/01 12:01:35;;;;;;;2.50;0.63;;;;;;;15.58;43.98;100853.44;6273247;22;20103;-82
2022/11/01 12:04:44;;;;;;;4.07;0.80;;;;;;;15.57;44.19;100854.38;6273107;22;20022;-83
2022/11/01 12:07:56;;;;;;;6.00;0.77;;;;;;;15.57;42.33;100857.03;6273006;22;20022;-83
2022/11/01 12:11:11;;;;;;;2.60;0.60;;;;;;;15.63;42.57;100854.91;6271333;22;20038;-84
2022/11/01 12:14:22;;;;;;;5.22;0.90;;;;;;;15.63;42.43;100857.53;6271952;22;20088;-84
2022/11/01 12:17:43;;;;;;;3.58;0.93;;;;;;;15.57;42.06;100861.44;6270968;22;20078;-84
2022/11/01 12:20:50;;;;;;;5.18;2.05;;;;;;;15.63;43.93;100863.66;6270999;22;20072;-84
2022/11/01 12:24:26;;;;;;;5.07;1.35;;;;;;;15.69;45.20;100847.44;6271444;22;20081;-85
2022/11/01 12:27:36;;;;;;;3.05;0.77;;;;;;;15.97;44.24;100856.94;6251877;22;20022;-85
2022/11/01 12:30:42;;;;;;;5.53;1.17;;;;;;;15.84;43.88;100856.09;6271921;22;20089;-92
2022/11/01 12:33:53;;;;;;;4.63;0.80;;;;;;;15.79;44.21;100859.06;6270865;22;20030;-80
2022/11/01 12:37:18;;;;;;;5.47;0.93;;;;;;;15.68;46.59;100850.22;6270855;22;20027;-87
2022/11/01 12:40:44;;;;;;;6.35;1.13;;;;;;;15.59;47.23;100857.75;6271106;22;20022;-80
2022/11/01 12:44:20;;;;;;;6.35;1.38;;;;;;;15.57;47.92;100849.13;6270820;22;20538;-80
2022/11/01 12:47:37;;;;;;;3.25;1.13;;;;;;;15.58;47.98;100855.22;6270561;22;20019;-78
2022/11/01 12:50:53;;;;;;;17.08;8.38;;;;;;;15.55;48.37;100861.53;6270988;22;20026;-78
2022/11/01 12:58:36;;;;;;;6.75;3.05;;;;;;;15.47;50.00;100852.47;6270928;22;20521;-78
2022/11/01 13:02:08;;;;;;;4.80;0.98;;;;;;;15.39;49.39;100853.00;6270477;22;20038;-78
2022/11/01 13:05:24;;;;;;;4.27;0.93;;;;;;;15.22;48.24;100843.59;6255037;22;20026;-78
2022/11/01 13:08:48;;;;;;;7.18;1.42;;;;;;;15.35;48.36;100844.44;6270159;22;20050;-78
2022/11/01 13:11:51;;;;;;;5.15;1.00;;;;;;;15.34;47.67;100848.00;6271404;22;20025;-78
2022/11/01 13:15:02;;;;;;;4.55;1.10;;;;;;;15.31;47.10;100865.81;6252358;22;20116;-78
2022/11/01 13:18:39;;;;;;;6.85;1.15;;;;;;;15.38;45.52;100861.84;6271146;22;20023;-79
2022/11/01 13:22:05;;;;;;;3.50;1.02;;;;;;;15.31;44.83;100848.22;6270327;22;20022;-79
2022/11/01 13:25:35;;;;;;;5.75;0.95;;;;;;;15.30;44.57;100843.06;6269800;22;20027;-79
2022/11/01 13:29:16;;;;;;;5.07;0.93;;;;;;;15.26;45.01;100845.06;6269842;22;20122;-79
2022/11/01 13:32:38;;;;;;;6.32;1.88;;;;;;;15.30;45.28;100846.53;6252241;22;20081;-79
2022/11/01 13:36:19;;;;;;;7.93;1.73;;;;;;;15.24;45.98;100852.22;6269818;22;20111;-80
2022/11/01 13:39:45;;;;;;;11.23;2.72;;;;;;;15.30;44.97;100856.25;6270230;22;20077;-80
2022/11/01 13:43:03;;;;;;;6.35;1.35;;;;;;;15.28;45.28;100847.59;6270433;22;20023;-80
2022/11/01 13:46:24;;;;;;;6.40;1.83;;;;;;;15.21;44.41;100851.56;6270030;22;20022;-80
2022/11/01 13:54:47;;;;;;;5.43;1.20;;;;;;;14.79;48.25;100858.72;6246174;22;20076;-81
2022/11/01 13:57:54;;;;;;;6.78;2.13;;;;;;;15.10;43.65;100855.78;6270111;22;20070;-79
2022/11/01 14:01:39;;;;;;;7.20;2.13;;;;;;;15.10;43.41;100863.69;6268674;22;20069;-78
2022/11/01 14:05:01;;;;;;;;;;;;;;;15.01;45.01;100861.63;6270812;22;20069;-80
2022/11/01 14:08:25;;;;;;;9.55;2.88;;;;;;;14.98;45.66;100864.47;6251692;22;19964;-81
2022/11/01 14:11:49;;;;;;;11.00;3.75;;;;;;;14.84;47.94;100859.28;6270447;22;20023;-81
2022/11/01 14:15:08;;;;;;;;;;;;;;;14.91;45.18;100865.81;6254541;22;20077;-81
2022/11/01 14:18:17;;;;;;;5.28;1.33;;;;;;;14.91;45.34;100871.09;6271477;22;20349;-81
2022/11/01 14:21:45;;;;;;;7.80;2.45;;;;;;;14.86;46.03;100870.53;6272340;22;20062;-81
2022/11/01 14:25:21;;;;;;;9.00;1.90;;;;;;;14.94;44.97;100881.44;6254658;22;20413;-81
2022/11/01 14:28:31;;;;;;;6.50;2.00;;;;;;;15.05;44.62;100880.72;6270146;22;20080;-81
2022/11/01 14:31:52;;;;;;;6.65;1.60;;;;;;;15.06;43.99;100878.00;6272314;22;20229;-81
2022/11/01 14:35:28;;;;;;;7.82;1.77;;;;;;;14.99;45.21;100874.06;6273247;22;20095;-80
2022/11/01 14:38:42;;;;;;;6.43;1.40;;;;;;;14.86;45.46;100871.38;6273205;22;20122;-80
2022/11/01 14:41:55;;;;;;;5.97;1.92;;;;;;;14.87;45.58;100878.34;6274783;22;20073;-80
2022/11/01 14:45:33;;;;;;;4.78;1.08;;;;;;;14.81;46.52;100870.00;6277977;22;20038;-80
2022/11/01 14:50:05;;;;;;;4.75;1.65;;;;;;;14.78;45.98;100881.56;6276447;22;20026;-81
2022/11/01 14:54:05;;;;;;;7.35;2.05;;;;;;;14.55;48.77;100879.53;6272664;22;20095;-80
2022/11/01 14:57:47;;;;;;;6.95;2.55;;;;;;;14.53;48.38;100887.53;6271239;22;20023;-80
2022/11/01 15:01:04;;;;;;;6.95;1.67;;;;;;;14.37;50.35;100889.41;6176926;23;20050;-80
2022/11/01 15:04:29;;;;;;;8.70;1.80;;;;;;;14.37;51.10;100898.16;6178098;23;20440;-80